Time;durP1;ratioP1;P1;durP2;ratioP2;P2;SDS_P1;SDS_P2;PMS_P1;PMS_P2;Temp;Humidity;BMP_temperature;BMP_pressure;BME280_temperature;BME280_humidity;BME280_pressure;Samples;Min_cycle;Max_cycle;Signal;HPM_P1;HPM_P2
2021/11/03 00:26:05;;;;;;;3.80;1.30;;;20.20;57.60;;;;;;103719593;28;20038;-61
2021/11/03 01:16:06;;;;;;;1.13;0.55;;;20.00;57.80;;;;;;103724086;28;20038;-61
2021/11/03 02:06:12;;;;;;;3.20;0.70;;;19.80;57.70;;;;;;103774708;28;20126;-59
2021/11/03 02:56:14;;;;;;;2.40;1.27;;;19.60;57.40;;;;;;103888579;28;20381;-62
2021/11/03 03:46:15;;;;;;;2.10;1.23;;;19.50;57.00;;;;;;103820020;28;20547;-61
2021/11/03 04:36:16;;;;;;;12.67;2.20;;;19.40;56.70;;;;;;103733896;28;20034;-61
2021/11/03 05:26:19;;;;;;;8.27;2.13;;;19.30;57.20;;;;;;103707855;28;20034;-61
2021/11/03 06:16:21;;;;;;;3.67;0.97;;;19.50;56.70;;;;;;103684576;28;20038;-62
2021/11/03 07:06:21;;;;;;;10.43;3.40;;;20.40;54.50;;;;;;103709607;28;20030;-61
2021/11/03 07:56:23;;;;;;;4.75;1.60;;;20.40;54.90;;;;;;103770443;28;20029;-59
2021/11/03 08:46:24;;;;;;;10.93;1.67;;;20.40;55.10;;;;;;103607749;28;20033;-58
2021/11/03 09:36:26;;;;;;;8.83;1.60;;;20.70;54.40;;;;;;103724067;23;20049;-53
2021/11/03 10:26:44;;;;;;;2.83;0.90;;;20.30;54.80;;;;;;103624231;28;20034;-51
2021/11/03 11:17:08;;;;;;;2.03;0.90;;;19.90;55.70;;;;;;103702410;28;20038;-50
2021/11/03 12:07:19;;;;;;;3.47;1.13;;;20.10;55.10;;;;;;103713909;28;20030;-55
2021/11/03 12:57:25;;;;;;;5.47;0.60;;;20.10;55.20;;;;;;103700910;28;20033;-52
2021/11/03 13:47:31;;;;;;;3.37;0.67;;;19.90;56.00;;;;;;103693758;28;20033;-52
2021/11/03 14:37:33;;;;;;;3.30;1.00;;;19.80;56.30;;;;;;103725255;28;20050;-49
2021/11/03 15:27:33;;;;;;;1.25;0.50;;;19.70;56.50;;;;;;103706820;28;20029;-51
2021/11/03 16:17:34;;;;;;;1.02;0.70;;;20.00;56.00;;;;;;103720188;28;20097;-52
2021/11/03 17:07:34;;;;;;;1.38;0.50;;;20.80;54.70;;;;;;103712270;23;20114;-50
2021/11/03 17:57:45;;;;;;;22.40;7.78;;;20.70;57.70;;;;;;103584218;28;20034;-48
2021/11/03 18:47:46;;;;;;;13.53;6.53;;;20.80;57.70;;;;;;103989464;28;20434;-48
2021/11/03 19:37:52;;;;;;;75.03;34.20;;;21.40;59.70;;;;;;104113873;28;20091;-52
2021/11/03 20:27:53;;;;;;;73.40;28.33;;;22.00;58.20;;;;;;104132035;28;20062;-46
2021/11/03 21:17:54;;;;;;;33.70;15.67;;;22.10;57.10;;;;;;104105403;28;20495;-47
2021/11/03 22:03:32;;;;;;;14.55;8.15;;;21.80;58.00;;;;;;1004360;27;20675;-51
2021/11/03 22:04:03;;;;;;;16.83;9.05;;;20.90;57.70;;;;;;1038981;28;20625;-48
2021/11/03 22:04:33;;;;;;;15.57;9.10;;;20.90;58.00;;;;;;1043116;28;20144;-54
2021/11/03 22:05:05;;;;;;;17.92;9.05;;;20.90;57.90;;;;;;1039924;28;20014;-51
2021/11/03 22:05:36;;;;;;;20.70;10.35;;;20.90;58.10;;;;;;1042785;28;20013;-51
2021/11/03 22:06:07;;;;;;;20.90;9.80;;;20.90;58.10;;;;;;1041099;28;20029;-51
2021/11/03 22:06:38;;;;;;;22.65;10.80;;;20.90;58.30;;;;;;1038292;28;20046;-51
2021/11/03 22:07:09;;;;;;;16.05;9.13;;;20.90;58.20;;;;;;1038511;28;20499;-51
2021/11/03 22:07:39;;;;;;;20.95;8.45;;;20.90;58.30;;;;;;1038747;28;20391;-45
2021/11/03 22:08:10;;;;;;;15.40;7.78;;;20.90;58.20;;;;;;1039111;28;20025;-48
2021/11/03 22:08:40;;;;;;;16.17;8.55;;;20.90;58.20;;;;;;1038341;28;20049;-49
2021/11/03 22:09:11;;;;;;;13.77;8.82;;;20.90;58.30;;;;;;1039044;28;20022;-50
2021/11/03 22:09:42;;;;;;;17.48;9.88;;;20.90;58.20;;;;;;1038771;28;20020;-52
2021/11/03 22:10:13;;;;;;;18.48;8.60;;;20.90;58.20;;;;;;1039026;28;20010;-50
2021/11/03 22:10:45;;;;;;;19.27;10.20;;;20.90;58.20;;;;;;1038824;28;20029;-50
2021/11/03 22:11:16;;;;;;;15.82;8.25;;;20.90;58.30;;;;;;1039183;28;20022;-50
2021/11/03 22:11:47;;;;;;;17.90;8.50;;;20.90;58.20;;;;;;1039025;28;20018;-48
2021/11/03 22:12:18;;;;;;;20.10;9.00;;;20.90;58.20;;;;;;1039061;28;20024;-50
2021/11/03 22:12:50;;;;;;;17.45;8.77;;;20.80;58.10;;;;;;1043018;28;20024;-51
2021/11/03 22:13:21;;;;;;;17.75;8.68;;;20.90;58.20;;;;;;1043000;28;20028;-48
2021/11/03 22:13:55;;;;;;;22.23;8.77;;;20.90;58.20;;;;;;1043212;28;20032;-51
2021/11/03 22:14:26;;;;;;;22.23;10.25;;;20.90;58.20;;;;;;1043144;28;20013;-51
2021/11/03 22:14:56;;;;;;;26.67;8.82;;;20.90;58.10;;;;;;1040281;28;20025;-48
2021/11/03 22:15:27;;;;;;;17.15;8.88;;;20.90;58.20;;;;;;1039025;28;20017;-49
2021/11/03 22:15:58;;;;;;;20.38;10.65;;;20.90;58.10;;;;;;1039045;28;20041;-53
2021/11/03 22:16:28;;;;;;;18.48;9.98;;;20.80;58.10;;;;;;1037869;28;20112;-53
2021/11/03 22:16:59;;;;;;;21.10;9.48;;;20.80;58.70;;;;;;1038851;28;20107;-51
2021/11/03 22:17:30;;;;;;;24.02;9.40;;;20.90;58.10;;;;;;1038415;28;20400;-53
2021/11/03 22:18:00;;;;;;;21.65;10.82;;;20.90;58.10;;;;;;1039018;28;20504;-48
2021/11/03 22:18:31;;;;;;;17.88;8.73;;;20.80;58.10;;;;;;1038475;28;20026;-49
2021/11/03 22:19:01;;;;;;;18.02;9.00;;;20.80;58.00;;;;;;1038794;28;20013;-51
2021/11/03 22:19:32;;;;;;;19.67;8.80;;;20.80;58.10;;;;;;1038803;28;20542;-51
2021/11/03 22:20:05;;;;;;;16.40;9.18;;;20.90;58.20;;;;;;1038967;28;20025;-53
2021/11/03 22:20:37;;;;;;;23.95;8.95;;;20.90;58.20;;;;;;1039013;28;20013;-52
2021/11/03 22:21:07;;;;;;;20.35;10.10;;;20.80;58.20;;;;;;1038881;28;20530;-53
2021/11/03 22:21:39;;;;;;;18.05;8.32;;;20.80;57.90;;;;;;1039100;28;20096;-47
2021/11/03 22:22:09;;;;;;;19.88;10.52;;;20.80;57.90;;;;;;1039062;28;20384;-48
2021/11/03 22:22:41;;;;;;;19.95;9.38;;;20.80;58.00;;;;;;1039042;28;20052;-50
2021/11/03 22:23:11;;;;;;;17.08;8.75;;;20.80;58.00;;;;;;1038848;28;20017;-48
2021/11/03 22:23:42;;;;;;;20.63;8.77;;;20.80;58.20;;;;;;1039040;28;20021;-51
2021/11/03 22:24:13;;;;;;;17.58;8.98;;;20.80;57.90;;;;;;1038971;28;20048;-45
2021/11/03 22:24:44;;;;;;;17.60;8.43;;;20.80;58.10;;;;;;1038859;28;20017;-50
2021/11/03 22:25:16;;;;;;;17.80;8.27;;;20.80;58.00;;;;;;1038887;28;20016;-51
2021/11/03 22:25:46;;;;;;;16.25;8.93;;;20.80;58.00;;;;;;1038966;28;20156;-50
2021/11/03 22:26:17;;;;;;;20.05;8.85;;;20.80;58.10;;;;;;1037732;28;20022;-52
2021/11/03 22:26:47;;;;;;;20.25;9.48;;;20.80;58.20;;;;;;1038836;28;20022;-52
2021/11/03 22:27:18;;;;;;;15.80;8.25;;;20.80;58.00;;;;;;989462;28;20038;-51
2021/11/03 22:27:50;;;;;;;13.85;8.32;;;20.80;58.10;;;;;;1036365;28;20010;-52
2021/11/03 22:28:21;;;;;;;24.05;10.10;;;20.80;57.90;;;;;;1038318;28;20025;-47
2021/11/03 22:28:52;;;;;;;20.08;8.38;;;20.80;58.20;;;;;;1039017;28;20105;-49
2021/11/03 22:29:22;;;;;;;16.10;7.95;;;20.80;57.90;;;;;;1038598;28;20014;-49
2021/11/03 22:29:53;;;;;;;17.27;8.85;;;20.80;57.90;;;;;;1038975;28;20079;-51
2021/11/03 22:30:23;;;;;;;19.35;10.20;;;20.80;58.00;;;;;;1038850;28;20472;-54
2021/11/03 22:30:54;;;;;;;18.73;8.30;;;20.80;58.00;;;;;;1038920;28;20087;-50
2021/11/03 22:31:25;;;;;;;16.65;8.88;;;20.80;57.90;;;;;;1038833;28;20527;-53
2021/11/03 22:31:56;;;;;;;20.02;10.30;;;20.80;58.10;;;;;;1038984;28;20018;-50
2021/11/03 22:32:26;;;;;;;17.05;8.38;;;20.80;57.90;;;;;;1038940;28;20018;-52
2021/11/03 22:32:58;;;;;;;17.17;7.93;;;20.80;58.00;;;;;;1038944;28;20100;-49
2021/11/03 22:33:28;;;;;;;15.25;8.55;;;20.70;58.10;;;;;;1038891;28;20022;-50
2021/11/03 22:33:59;;;;;;;19.60;9.00;;;20.70;58.00;;;;;;1038891;28;20025;-52
2021/11/03 22:34:29;;;;;;;23.73;9.15;;;20.80;58.10;;;;;;1042649;28;20021;-50
2021/11/03 22:35:00;;;;;;;19.75;9.82;;;20.70;58.10;;;;;;1039691;28;20049;-46
2021/11/03 22:35:30;;;;;;;20.55;7.03;;;20.70;58.00;;;;;;1039023;28;20085;-53
2021/11/03 22:36:01;;;;;;;13.40;7.68;;;20.70;58.00;;;;;;1038544;28;20028;-54
2021/11/03 22:36:32;;;;;;;18.13;7.43;;;20.70;58.10;;;;;;1038085;28;20028;-51
2021/11/03 22:37:03;;;;;;;15.13;8.23;;;20.70;58.00;;;;;;1038726;28;20552;-51
2021/11/03 22:37:36;;;;;;;14.77;8.65;;;20.70;58.00;;;;;;1038340;28;20028;-48
2021/11/03 22:38:06;;;;;;;17.48;8.55;;;20.70;58.00;;;;;;1038777;28;20021;-47
2021/11/03 22:38:37;;;;;;;17.60;9.13;;;20.80;58.00;;;;;;1038366;28;20476;-52
2021/11/03 22:39:08;;;;;;;15.05;7.07;;;20.70;58.10;;;;;;1038788;28;20025;-50
2021/11/03 22:39:38;;;;;;;16.88;7.82;;;20.70;58.10;;;;;;1038729;28;20029;-51
2021/11/03 22:40:11;;;;;;;15.23;7.28;;;20.70;58.10;;;;;;1038866;28;20018;-52
2021/11/03 22:40:42;;;;;;;15.80;8.38;;;20.70;58.30;;;;;;1038840;28;20021;-47
2021/11/03 22:41:14;;;;;;;13.93;7.72;;;20.70;58.40;;;;;;1038920;28;20029;-49
2021/11/03 22:41:44;;;;;;;15.65;6.43;;;20.70;58.40;;;;;;1038810;28;20014;-47
2021/11/03 22:42:15;;;;;;;21.08;7.85;;;20.70;58.10;;;;;;1039023;28;20021;-54
2021/11/03 22:42:46;;;;;;;13.48;8.32;;;20.70;58.40;;;;;;1038946;28;20488;-47
2021/11/03 22:43:17;;;;;;;14.45;8.60;;;20.70;58.40;;;;;;1038934;28;20104;-50
2021/11/03 22:43:48;;;;;;;17.00;6.93;;;20.60;58.20;;;;;;1038977;28;20033;-50
2021/11/03 22:44:19;;;;;;;16.05;6.85;;;20.70;58.40;;;;;;1038861;28;20515;-52
2021/11/03 22:44:49;;;;;;;11.38;6.55;;;20.70;58.90;;;;;;1038772;28;20102;-50
2021/11/03 22:45:22;;;;;;;12.60;7.50;;;20.70;58.50;;;;;;941083;28;78445;-49
2021/11/03 23:35:40;;;;;;;15.87;4.77;;;20.70;58.90;;;;;;103636825;23;20677;-51
